Time;durP1;ratioP1;P1;durP2;ratioP2;P2;SDS_P1;SDS_P2;PMS_P1;PMS_P2;Temp;Humidity;BMP_temperature;BMP_pressure;BME280_temperature;BME280_humidity;BME280_pressure;Samples;Min_cycle;Max_cycle;Signal;HPM_P1;HPM_P2
2023/08/08 00:00:20;;;;;;;5.65;2.40;;;;;;;12.84;100.00;101146.69;4948237;29;20043;-74
2023/08/08 00:02:47;;;;;;;6.28;2.22;;;;;;;12.83;100.00;101139.63;4949362;28;20390;-75
2023/08/08 00:05:14;;;;;;;2.83;2.25;;;;;;;12.80;100.00;101139.66;4931747;29;20043;-75
2023/08/08 00:07:41;;;;;;;7.18;2.40;;;;;;;12.79;100.00;101138.75;4949047;28;20051;-75
2023/08/08 00:10:09;;;;;;;6.57;2.50;;;;;;;12.78;100.00;101136.09;4940352;28;20050;-75
2023/08/08 00:12:36;;;;;;;3.80;2.20;;;;;;;12.76;100.00;101140.53;4906959;28;20051;-75
2023/08/08 00:15:04;;;;;;;6.45;2.35;;;;;;;12.75;100.00;101131.72;4963023;28;20066;-76
2023/08/08 00:17:32;;;;;;;4.05;2.63;;;;;;;12.75;100.00;101133.50;4933237;29;20051;-75
2023/08/08 00:19:59;;;;;;;4.43;2.92;;;;;;;12.74;100.00;101131.72;4947394;28;20043;-75
2023/08/08 00:22:26;;;;;;;4.68;2.78;;;;;;;12.72;100.00;101139.69;4934128;29;20073;-75
2023/08/08 00:24:54;;;;;;;7.80;2.50;;;;;;;12.73;100.00;101135.25;4943480;28;20050;-75
2023/08/08 00:27:21;;;;;;;5.55;2.35;;;;;;;12.71;100.00;101132.59;4910101;28;20051;-75
2023/08/08 00:29:50;;;;;;;6.45;2.25;;;;;;;12.71;100.00;101137.03;4960152;28;20132;-74
2023/08/08 00:32:17;;;;;;;5.95;2.63;;;;;;;12.70;100.00;101133.47;4947929;28;20135;-75
2023/08/08 00:34:45;;;;;;;6.90;2.28;;;;;;;12.70;100.00;101129.97;4949810;29;20062;-75
2023/08/08 00:37:12;;;;;;;3.88;2.72;;;;;;;12.69;100.00;101129.09;4948052;28;20047;-75
2023/08/08 00:39:42;;;;;;;10.38;2.67;;;;;;;12.67;100.00;101122.91;4949447;28;20048;-75
2023/08/08 00:42:14;;;;;;;4.93;2.22;;;;;;;12.68;100.00;101116.72;4910814;29;20067;-74
2023/08/08 00:44:42;;;;;;;3.83;2.40;;;;;;;12.66;100.00;101116.75;4909000;28;20062;-75
2023/08/08 00:47:10;;;;;;;7.53;3.08;;;;;;;12.67;100.00;101112.34;4964302;28;20051;-75
2023/08/08 00:49:38;;;;;;;6.13;2.67;;;;;;;12.64;100.00;101110.56;4964874;28;20058;-75
2023/08/08 00:52:07;;;;;;;7.95;2.53;;;;;;;12.63;100.00;101116.75;4963982;28;20066;-75
2023/08/08 00:54:34;;;;;;;5.57;2.30;;;;;;;12.60;100.00;101116.75;4981039;28;20048;-75
2023/08/08 00:57:03;;;;;;;2.92;2.20;;;;;;;12.59;100.00;101119.38;4971887;28;20043;-75
2023/08/08 00:59:33;;;;;;;6.95;2.72;;;;;;;12.58;100.00;101112.34;4922158;28;20035;-75
2023/08/08 01:02:00;;;;;;;4.15;2.47;;;;;;;12.57;100.00;101113.22;4948369;29;20529;-75
2023/08/08 01:04:28;;;;;;;5.72;2.78;;;;;;;12.56;100.00;101104.41;4951234;29;20047;-75
2023/08/08 01:07:22;;;;;;;6.57;2.63;;;;;;;12.58;100.00;101110.59;4915867;29;20051;-75
2023/08/08 01:10:01;;;;;;;5.78;3.22;;;;;;;12.59;100.00;101103.53;4948683;28;20051;-75
2023/08/08 01:12:31;;;;;;;5.65;3.00;;;;;;;12.57;100.00;101107.94;4943622;28;20043;-75
2023/08/08 01:14:59;;;;;;;5.43;2.65;;;;;;;12.57;100.00;101100.00;4911443;28;20148;-75
2023/08/08 01:17:27;;;;;;;6.15;2.65;;;;;;;12.57;100.00;101100.00;4969112;28;20059;-75
2023/08/08 01:19:56;;;;;;;6.43;3.40;;;;;;;12.57;100.00;101098.25;4931127;29;20055;-75
2023/08/08 01:22:32;;;;;;;9.30;2.95;;;;;;;12.57;100.00;101105.28;4918000;29;20051;-75
2023/08/08 01:25:00;;;;;;;4.03;2.67;;;;;;;12.55;100.00;101097.38;4946490;28;20062;-75
2023/08/08 01:27:28;;;;;;;3.42;2.38;;;;;;;12.56;100.00;101098.25;4943489;28;20055;-75
2023/08/08 01:29:55;;;;;;;5.25;2.83;;;;;;;12.56;100.00;101095.63;4887176;28;20047;-75
2023/08/08 01:32:23;;;;;;;6.57;2.35;;;;;;;12.55;100.00;101093.84;4949943;28;20055;-75
2023/08/08 01:34:50;;;;;;;4.50;2.80;;;;;;;12.55;100.00;101086.81;4947686;29;20039;-75
2023/08/08 01:37:22;;;;;;;8.55;2.47;;;;;;;12.58;100.00;101085.91;4947021;29;20039;-74
2023/08/08 01:39:53;;;;;;;7.60;2.72;;;;;;;12.59;100.00;101082.38;4947688;28;20058;-74
2023/08/08 01:42:23;;;;;;;6.70;2.47;;;;;;;12.59;100.00;101075.34;4962167;28;20051;-75
2023/08/08 01:44:52;;;;;;;5.60;2.72;;;;;;;12.61;100.00;101073.59;4941258;28;20055;-75
2023/08/08 01:47:20;;;;;;;6.57;2.47;;;;;;;12.62;100.00;101071.81;4921910;28;20050;-75
2023/08/08 01:49:47;;;;;;;7.55;2.97;;;;;;;12.62;100.00;101072.69;4946949;29;20051;-75
2023/08/08 01:52:15;;;;;;;4.43;2.40;;;;;;;12.65;100.00;101075.34;4977958;28;20067;-74
2023/08/08 01:54:42;;;;;;;5.72;2.58;;;;;;;12.69;100.00;101068.28;4980794;28;20055;-74
2023/08/08 01:57:11;;;;;;;4.00;2.50;;;;;;;12.72;100.00;101059.44;4971520;28;20043;-75
2023/08/08 01:59:39;;;;;;;5.82;3.33;;;;;;;12.74;100.00;101062.97;4952306;28;20077;-75
2023/08/08 02:02:06;;;;;;;5.30;2.75;;;;;;;12.74;100.00;101062.97;4916046;28;20819;-75
2023/08/08 02:04:34;;;;;;;8.63;3.45;;;;;;;12.74;100.00;101061.22;4962767;28;20528;-75
2023/08/08 02:07:01;;;;;;;3.22;2.70;;;;;;;12.74;100.00;101057.69;4945314;29;20039;-75
2023/08/08 02:09:28;;;;;;;13.30;2.80;;;;;;;12.75;100.00;101056.81;4963560;28;20054;-74
2023/08/08 02:11:57;;;;;;;3.92;2.55;;;;;;;12.74;100.00;101055.94;4945816;28;20417;-75
2023/08/08 02:14:24;;;;;;;6.53;2.47;;;;;;;12.76;100.00;101051.53;4937089;28;20445;-75
2023/08/08 02:16:53;;;;;;;9.80;2.53;;;;;;;12.77;100.00;101049.75;4904952;28;20042;-74
2023/08/08 02:19:20;;;;;;;4.18;2.60;;;;;;;12.78;100.00;101041.81;4954823;28;20046;-74
2023/08/08 02:21:48;;;;;;;7.82;2.53;;;;;;;12.79;100.00;101048.84;4978721;28;20496;-74
2023/08/08 02:24:18;;;;;;;6.72;2.88;;;;;;;12.81;100.00;101044.44;4926793;29;20529;-74
2023/08/08 02:26:46;;;;;;;4.63;2.75;;;;;;;12.82;100.00;101040.91;4948875;28;20095;-75
2023/08/08 02:29:14;;;;;;;5.47;2.53;;;;;;;12.83;100.00;101036.50;4945493;28;20062;-75
2023/08/08 02:31:41;;;;;;;11.45;2.92;;;;;;;12.84;100.00;101041.78;4895800;28;20039;-75
2023/08/08 02:34:08;;;;;;;7.40;2.45;;;;;;;12.86;100.00;101040.00;4951053;28;20043;-75
2023/08/08 02:36:36;;;;;;;7.60;2.70;;;;;;;12.87;100.00;101040.88;4944085;29;20058;-75
2023/08/08 02:39:03;;;;;;;3.83;2.78;;;;;;;12.86;100.00;101033.84;4948164;29;20051;-75
2023/08/08 02:41:32;;;;;;;3.03;2.08;;;;;;;12.88;100.00;101022.38;4943954;29;20050;-75
2023/08/08 02:44:00;;;;;;;2.97;2.20;;;;;;;12.90;100.00;101026.78;4935035;28;20054;-74
2023/08/08 02:46:27;;;;;;;2.92;2.35;;;;;;;12.91;100.00;101028.53;4953065;28;20066;-74
2023/08/08 02:48:55;;;;;;;4.97;2.65;;;;;;;12.92;100.00;101025.88;4907026;28;20058;-74
2023/08/08 02:51:23;;;;;;;6.25;1.80;;;;;;;12.94;100.00;101026.75;4945766;28;20051;-74
2023/08/08 02:53:50;;;;;;;4.40;2.63;;;;;;;12.96;100.00;101024.13;4948224;29;20060;-75
2023/08/08 02:56:17;;;;;;;4.85;2.08;;;;;;;12.98;100.00;101020.56;4948114;29;20055;-74
2023/08/08 02:58:45;;;;;;;3.00;1.90;;;;;;;13.00;100.00;101021.44;4930133;29;20052;-74
2023/08/08 03:01:14;;;;;;;2.90;2.10;;;;;;;13.01;100.00;101011.75;4946521;28;20043;-74
2023/08/08 03:03:43;;;;;;;5.18;1.88;;;;;;;13.04;100.00;101024.97;4912857;28;20058;-74
2023/08/08 03:06:10;;;;;;;5.70;1.88;;;;;;;13.04;100.00;101017.03;4948865;28;20062;-75
2023/08/08 03:08:38;;;;;;;4.45;2.17;;;;;;;13.05;100.00;101022.31;4945921;28;20055;-74
2023/08/08 03:11:06;;;;;;;8.70;2.20;;;;;;;13.06;100.00;101015.25;4947950;28;20509;-74
2023/08/08 03:13:33;;;;;;;3.05;2.00;;;;;;;13.07;100.00;101009.09;4976465;28;20047;-75
2023/08/08 03:16:01;;;;;;;3.38;2.20;;;;;;;13.08;100.00;101010.84;4949052;29;20074;-75
2023/08/08 03:18:28;;;;;;;6.65;2.95;;;;;;;13.07;100.00;101011.72;4897937;28;20063;-74
2023/08/08 03:20:56;;;;;;;5.13;1.92;;;;;;;13.06;100.00;101013.50;4931868;29;20055;-75
2023/08/08 03:23:24;;;;;;;4.95;2.28;;;;;;;13.05;100.00;101005.56;4944876;29;20047;-75
2023/08/08 03:25:53;;;;;;;5.47;2.00;;;;;;;13.06;100.00;101007.31;4946915;28;20059;-75
2023/08/08 03:28:20;;;;;;;3.60;1.83;;;;;;;13.05;100.00;101011.72;4930473;29;20062;-74
2023/08/08 03:30:48;;;;;;;3.08;2.15;;;;;;;13.05;100.00;101008.22;4946986;29;20058;-74
2023/08/08 03:33:15;;;;;;;4.70;2.20;;;;;;;13.04;100.00;100998.50;4924492;28;20051;-74
2023/08/08 03:35:43;;;;;;;5.07;2.05;;;;;;;13.03;100.00;101000.28;4957357;28;20059;-74
2023/08/08 03:38:11;;;;;;;4.18;2.08;;;;;;;13.02;100.00;100998.53;4946850;28;20521;-74
2023/08/08 03:40:39;;;;;;;8.18;1.92;;;;;;;13.02;100.00;101000.28;4945222;28;20070;-74
2023/08/08 03:43:07;;;;;;;7.95;2.22;;;;;;;12.98;100.00;100998.53;4950537;29;20047;-75
2023/08/08 03:45:34;;;;;;;6.22;2.22;;;;;;;12.94;100.00;101002.97;4979434;28;20054;-74
2023/08/08 03:48:02;;;;;;;2.15;1.95;;;;;;;12.91;100.00;100994.16;4944176;28;20054;-76
2023/08/08 03:50:30;;;;;;;3.03;1.60;;;;;;;12.88;100.00;100989.75;4909922;28;20058;-76
2023/08/08 03:52:57;;;;;;;4.72;2.10;;;;;;;12.86;100.00;100983.59;4961086;28;20051;-74
2023/08/08 03:55:25;;;;;;;7.15;2.00;;;;;;;12.86;100.00;100984.47;4931527;29;20047;-74
2023/08/08 03:57:52;;;;;;;6.65;2.20;;;;;;;12.87;100.00;100988.00;4950613;28;20051;-75
2023/08/08 04:00:20;;;;;;;2.50;1.83;;;;;;;12.86;100.00;100984.47;4948124;28;20051;-74
2023/08/08 04:02:47;;;;;;;6.53;1.70;;;;;;;12.84;100.00;100983.59;4949142;28;20054;-74
2023/08/08 04:05:15;;;;;;;2.83;1.92;;;;;;;12.82;100.00;100982.72;4909218;28;20043;-74
2023/08/08 04:07:42;;;;;;;4.78;2.03;;;;;;;12.81;100.00;100974.81;4936056;28;20149;-74
2023/08/08 04:10:09;;;;;;;5.03;2.15;;;;;;;12.78;100.00;100978.34;4947952;28;20508;-76
2023/08/08 04:12:37;;;;;;;5.13;3.08;;;;;;;12.76;100.00;100973.94;4947712;29;20565;-74
2023/08/08 04:15:04;;;;;;;3.92;2.03;;;;;;;12.72;100.00;100969.53;4950157;28;20039;-74
2023/08/08 04:17:32;;;;;;;5.85;2.00;;;;;;;12.70;100.00;100973.97;4927374;29;20055;-74
2023/08/08 04:19:59;;;;;;;4.57;2.00;;;;;;;12.67;100.00;100977.50;4960558;28;20504;-75
2023/08/08 04:22:26;;;;;;;3.20;1.75;;;;;;;12.66;100.00;100970.44;4905084;28;20062;-76
2023/08/08 04:24:54;;;;;;;5.38;1.65;;;;;;;12.64;100.00;100959.00;4950442;28;20047;-74
2023/08/08 04:27:21;;;;;;;6.47;3.35;;;;;;;12.63;100.00;100968.72;4947440;29;20054;-75
2023/08/08 04:29:48;;;;;;;5.13;1.90;;;;;;;12.62;100.00;100966.94;4949691;28;20054;-74
2023/08/08 04:32:16;;;;;;;6.28;2.15;;;;;;;12.62;100.00;100966.94;4949130;28;20390;-74
2023/08/08 04:34:43;;;;;;;6.35;2.10;;;;;;;12.63;100.00;100967.84;4942240;28;20051;-74
2023/08/08 04:37:10;;;;;;;5.95;2.00;;;;;;;12.63;100.00;100962.53;4898143;29;20043;-74
2023/08/08 04:39:38;;;;;;;5.13;2.00;;;;;;;12.63;100.00;100959.91;4949292;29;20051;-74
2023/08/08 04:42:05;;;;;;;3.95;1.67;;;;;;;12.62;100.00;100961.63;4948895;28;20571;-74
2023/08/08 04:44:32;;;;;;;4.60;2.72;;;;;;;12.63;100.00;100966.06;4962866;28;20043;-74
2023/08/08 04:47:00;;;;;;;5.07;2.33;;;;;;;12.62;100.00;100969.56;4950925;28;20055;-74
2023/08/08 04:49:28;;;;;;;6.93;1.73;;;;;;;12.64;100.00;100969.56;4949625;29;20047;-74
2023/08/08 04:51:56;;;;;;;4.47;1.55;;;;;;;12.62;100.00;100961.63;4902940;28;20047;-76
2023/08/08 04:54:24;;;;;;;2.55;1.20;;;;;;;12.64;100.00;100961.66;4948326;28;20047;-74
2023/08/08 04:56:51;;;;;;;5.70;1.42;;;;;;;12.68;100.00;100961.66;4950569;29;20046;-75
2023/08/08 04:59:18;;;;;;;4.93;1.80;;;;;;;12.75;100.00;100945.75;4948121;29;20062;-75
2023/08/08 05:01:46;;;;;;;7.78;1.58;;;;;;;13.12;100.00;100951.75;4949816;28;20039;-75
2023/08/08 05:04:13;;;;;;;1.85;1.63;;;;;;;13.50;100.00;100945.34;4949557;29;20039;-75
2023/08/08 05:06:42;;;;;;;5.00;1.50;;;;;;;14.03;100.00;100941.38;4941140;29;20059;-75
2023/08/08 05:09:09;;;;;;;4.85;1.20;;;;;;;14.58;100.00;100949.66;4911243;28;20524;-75
2023/08/08 05:11:37;;;;;;;7.28;1.50;;;;;;;15.08;100.00;100945.47;4946900;29;20043;-75
2023/08/08 05:14:04;;;;;;;1.95;1.10;;;;;;;15.29;100.00;100936.34;4949673;29;20058;-75
2023/08/08 05:16:31;;;;;;;7.32;1.60;;;;;;;15.31;100.00;100938.94;4945850;29;20119;-75
2023/08/08 05:19:00;;;;;;;5.57;1.65;;;;;;;15.28;100.00;100939.88;4944679;28;20047;-75
2023/08/08 05:21:27;;;;;;;3.25;1.20;;;;;;;15.26;100.00;100935.50;4958946;28;20062;-76
2023/08/08 05:23:55;;;;;;;4.65;1.30;;;;;;;15.35;100.00;100936.25;4915367;28;20048;-75
2023/08/08 05:26:22;;;;;;;3.53;1.25;;;;;;;15.54;100.00;100938.63;4963294;28;20057;-74
2023/08/08 05:28:49;;;;;;;3.25;1.50;;;;;;;15.81;100.00;100939.97;4948571;28;20119;-75
2023/08/08 05:31:17;;;;;;;4.72;1.33;;;;;;;16.25;100.00;100929.44;4948576;29;20043;-75
2023/08/08 05:33:44;;;;;;;2.60;1.48;;;;;;;16.62;100.00;100926.06;4947204;29;20039;-75
2023/08/08 05:36:11;;;;;;;4.38;1.20;;;;;;;16.52;100.00;100931.56;4942759;28;20054;-75
2023/08/08 05:38:39;;;;;;;4.10;1.20;;;;;;;16.37;100.00;100918.59;4909584;28;20055;-74
2023/08/08 05:41:06;;;;;;;4.13;1.15;;;;;;;16.15;100.00;100934.06;4980562;28;20058;-74
2023/08/08 05:43:33;;;;;;;5.07;1.75;;;;;;;15.97;100.00;100927.28;4945057;29;20047;-74
2023/08/08 05:46:01;;;;;;;4.32;1.60;;;;;;;15.74;100.00;100928.56;4949499;29;20436;-74
2023/08/08 05:48:28;;;;;;;4.43;1.30;;;;;;;15.55;100.00;100929.75;4945236;28;20055;-74
2023/08/08 05:50:58;;;;;;;5.47;1.40;;;;;;;15.49;100.00;100933.38;4941336;28;20473;-74
2023/08/08 05:53:25;;;;;;;6.63;1.40;;;;;;;15.57;100.00;100946.53;4946670;29;20505;-74
2023/08/08 05:55:53;;;;;;;8.45;1.35;;;;;;;15.59;100.00;100937.66;4925972;28;20047;-75
2023/08/08 05:58:20;;;;;;;2.03;1.23;;;;;;;15.42;100.00;100955.59;4950305;28;20069;-74
2023/08/08 06:00:47;;;;;;;4.32;1.48;;;;;;;15.26;100.00;100952.31;4947275;28;20047;-74
2023/08/08 06:03:15;;;;;;;5.20;1.70;;;;;;;15.13;100.00;100956.03;4946793;28;20047;-74
2023/08/08 06:05:42;;;;;;;6.15;1.55;;;;;;;15.03;100.00;100955.28;4946665;28;20047;-75
2023/08/08 06:08:12;;;;;;;4.93;1.40;;;;;;;14.91;100.00;100952.78;4945857;29;20602;-75
2023/08/08 06:10:39;;;;;;;4.80;1.37;;;;;;;14.86;100.00;100954.59;4875238;29;20071;-76
2023/08/08 06:13:07;;;;;;;6.95;1.10;;;;;;;14.77;100.00;100948.53;4950557;29;20047;-75
2023/08/08 06:15:34;;;;;;;5.57;1.42;;;;;;;14.75;100.00;100946.81;4948131;28;20043;-75
2023/08/08 06:18:02;;;;;;;6.88;1.42;;;;;;;14.75;100.00;100960.06;4949475;29;20055;-75
2023/08/08 06:20:29;;;;;;;6.68;1.50;;;;;;;14.75;100.00;100952.13;4945407;29;20460;-76
2023/08/08 06:22:57;;;;;;;4.97;2.13;;;;;;;14.76;100.00;100962.72;4941783;28;20046;-76
2023/08/08 06:25:24;;;;;;;3.92;1.27;;;;;;;14.75;100.00;100955.63;4893777;28;20043;-74
2023/08/08 06:27:52;;;;;;;3.92;1.55;;;;;;;14.76;100.00;100959.16;4963713;28;20066;-75
2023/08/08 06:30:19;;;;;;;3.67;1.27;;;;;;;14.87;100.00;100959.91;4946547;29;20062;-75
2023/08/08 06:32:47;;;;;;;4.03;1.20;;;;;;;15.01;100.00;100944.69;4949226;28;20062;-75
2023/08/08 06:35:16;;;;;;;8.63;1.38;;;;;;;15.21;100.00;100949.69;4964178;28;20079;-75
2023/08/08 06:37:44;;;;;;;4.55;1.40;;;;;;;15.39;100.00;100942.38;4948371;29;20054;-76
2023/08/08 06:40:12;;;;;;;5.70;1.20;;;;;;;15.43;100.00;100946.75;4913567;28;20066;-76
2023/08/08 06:42:40;;;;;;;5.60;1.38;;;;;;;15.54;100.00;100942.16;4924564;28;20039;-76
2023/08/08 06:45:09;;;;;;;5.63;1.58;;;;;;;15.88;100.00;100949.59;4947847;28;20063;-76
2023/08/08 06:47:37;;;;;;;4.32;1.25;;;;;;;16.18;100.00;100939.31;4945837;29;20711;-75
2023/08/08 06:50:05;;;;;;;3.20;1.58;;;;;;;16.34;100.00;100940.78;4947706;29;20044;-75
2023/08/08 06:52:32;;;;;;;4.90;1.10;;;;;;;16.41;100.00;100938.00;4945409;28;20058;-75
2023/08/08 06:55:00;;;;;;;5.80;1.38;;;;;;;16.44;100.00;100935.28;4939077;28;20043;-76
2023/08/08 06:57:33;;;;;;;;;;;;;;;16.43;100.00;100938.88;4911305;28;20099;-75
2023/08/08 07:00:04;;;;;;;12.65;1.98;;;;;;;16.44;100.00;100924.66;4965539;28;19922;-76
2023/08/08 07:02:32;;;;;;;7.50;1.23;;;;;;;16.48;100.00;100931.66;4945076;28;20039;-76
2023/08/08 07:05:03;;;;;;;3.17;1.23;;;;;;;16.45;100.00;100921.09;4949238;29;20082;-76
2023/08/08 07:07:33;;;;;;;4.03;1.50;;;;;;;16.50;100.00;100937.81;4945121;28;20824;-77
2023/08/08 07:10:00;;;;;;;4.53;1.55;;;;;;;16.53;100.00;100921.81;4943439;28;20058;-76
2023/08/08 07:12:28;;;;;;;4.82;1.65;;;;;;;16.50;100.00;100933.41;4907146;28;20055;-75
2023/08/08 07:14:55;;;;;;;7.57;1.75;;;;;;;16.45;100.00;100934.38;4980404;28;20043;-76
2023/08/08 07:17:23;;;;;;;4.43;1.65;;;;;;;16.41;100.00;100935.31;4947703;28;20047;-77
2023/08/08 07:19:50;;;;;;;3.58;1.10;;;;;;;16.40;100.00;100939.78;4952270;29;20047;-76
2023/08/08 07:22:18;;;;;;;12.90;1.85;;;;;;;16.47;100.00;100935.22;4949366;29;20051;-76
2023/08/08 07:24:45;;;;;;;4.07;1.13;;;;;;;16.58;100.00;100930.56;4943207;28;20051;-76
2023/08/08 07:27:13;;;;;;;3.92;1.17;;;;;;;16.66;100.00;100920.63;4949832;28;20416;-76
2023/08/08 07:29:40;;;;;;;6.85;1.52;;;;;;;16.76;100.00;100926.63;4896239;28;20098;-76
2023/08/08 07:32:08;;;;;;;5.40;1.40;;;;;;;16.73;100.00;100919.59;4950655;28;20059;-76
2023/08/08 07:34:35;;;;;;;5.13;1.13;;;;;;;16.67;100.00;100916.19;4948759;29;20043;-76
2023/08/08 07:37:03;;;;;;;5.03;1.40;;;;;;;16.66;100.00;100904.69;4952398;28;20047;-76
2023/08/08 07:39:30;;;;;;;4.47;1.00;;;;;;;16.78;100.00;100906.19;4948701;28;20082;-76
2023/08/08 07:41:58;;;;;;;6.75;1.35;;;;;;;16.94;100.00;100915.63;4947700;28;20055;-76
2023/08/08 07:44:25;;;;;;;7.80;1.58;;;;;;;17.11;100.00;100901.09;4917873;28;20051;-76
2023/08/08 07:46:53;;;;;;;4.88;0.93;;;;;;;17.10;100.00;100916.16;4958856;28;20047;-76
2023/08/08 07:49:20;;;;;;;4.22;1.33;;;;;;;17.03;100.00;100916.34;4950030;29;20062;-75
2023/08/08 07:51:47;;;;;;;5.38;1.17;;;;;;;16.99;100.00;100902.22;4949863;28;20055;-75
2023/08/08 07:54:15;;;;;;;4.00;1.00;;;;;;;17.08;100.00;100907.34;4949365;29;20051;-76
2023/08/08 07:56:42;;;;;;;5.93;1.55;;;;;;;17.20;100.00;100914.19;4944176;28;20051;-76
2023/08/08 07:59:10;;;;;;;3.67;1.40;;;;;;;17.14;100.00;100904.56;4943874;28;20078;-75
2023/08/08 08:01:37;;;;;;;6.97;0.98;;;;;;;17.12;100.00;100903.69;4938112;28;20054;-75
2023/08/08 08:04:04;;;;;;;4.97;1.27;;;;;;;17.14;100.00;100907.22;4950478;29;20124;-76
2023/08/08 08:06:32;;;;;;;8.50;1.75;;;;;;;17.18;100.00;100896.47;4947549;29;20043;-76
2023/08/08 08:08:59;;;;;;;3.75;1.38;;;;;;;17.07;100.00;100910.03;4934258;29;20055;-76
2023/08/08 08:11:27;;;;;;;4.68;0.90;;;;;;;16.79;100.00;100905.28;4946029;29;20054;-76
2023/08/08 08:13:55;;;;;;;3.95;1.40;;;;;;;16.57;100.00;100902.22;4927451;28;20054;-76
2023/08/08 08:16:22;;;;;;;7.03;1.00;;;;;;;16.41;100.00;100904.31;4912254;28;20058;-76
2023/08/08 08:18:49;;;;;;;3.65;1.25;;;;;;;16.35;100.00;100905.31;4965491;28;20043;-76
2023/08/08 08:21:19;;;;;;;4.70;1.30;;;;;;;16.41;100.00;100911.41;4949466;28;20051;-76
2023/08/08 08:23:47;;;;;;;2.33;1.33;;;;;;;16.57;100.00;100904.88;4948912;29;20050;-76
2023/08/08 08:26:15;;;;;;;5.28;1.08;;;;;;;16.64;100.00;100910.94;4949518;28;20059;-75
2023/08/08 08:28:42;;;;;;;3.80;0.80;;;;;;;16.62;100.00;100912.78;4940684;28;20051;-75
2023/08/08 08:31:09;;;;;;;3.55;1.48;;;;;;;16.60;100.00;100918.13;4914955;28;20050;-75
2023/08/08 08:33:37;;;;;;;5.70;1.08;;;;;;;16.61;100.00;100917.19;4955915;28;20047;-75
2023/08/08 08:36:04;;;;;;;10.40;1.77;;;;;;;16.64;100.00;100911.81;4949967;28;20058;-75
2023/08/08 08:38:32;;;;;;;6.05;2.35;;;;;;;16.67;100.00;100921.50;4948020;28;20677;-76
2023/08/08 08:41:02;;;;;;;6.10;1.10;;;;;;;16.70;100.00;100922.31;4949546;29;20074;-75
2023/08/08 08:43:31;;;;;;;3.33;1.25;;;;;;;16.69;100.00;100927.66;4941543;28;20054;-76
2023/08/08 08:46:01;;;;;;;3.20;1.25;;;;;;;16.69;100.00;100915.28;4916752;28;20047;-76
2023/08/08 08:48:29;;;;;;;;;;;;;;;16.58;100.00;100911.94;4963054;28;20808;-76
2023/08/08 08:50:57;;;;;;;5.03;1.30;;;;;;;16.55;100.00;100909.34;4949568;29;19923;-76
2023/08/08 08:53:25;;;;;;;3.67;1.00;;;;;;;16.56;100.00;100906.66;4948553;28;20497;-76
2023/08/08 08:55:53;;;;;;;5.65;1.40;;;;;;;16.54;100.00;100910.22;4949917;28;20402;-76
2023/08/08 08:58:21;;;;;;;2.92;1.00;;;;;;;16.54;100.00;100912.91;4947663;28;20055;-77
2023/08/08 09:00:49;;;;;;;3.67;0.90;;;;;;;16.50;100.00;100925.41;4947486;28;20059;-75
2023/08/08 09:03:17;;;;;;;3.45;1.02;;;;;;;16.48;100.00;100905.06;4912645;28;20058;-76
2023/08/08 09:05:45;;;;;;;2.90;1.02;;;;;;;16.40;100.00;100909.66;4948942;29;20421;-75
2023/08/08 09:08:12;;;;;;;3.38;1.20;;;;;;;16.30;100.00;100922.25;4948698;29;20054;-75
2023/08/08 09:10:40;;;;;;;2.47;1.00;;;;;;;16.25;100.00;100909.03;4948820;28;20051;-76
2023/08/08 09:13:07;;;;;;;8.40;1.10;;;;;;;16.25;100.00;100909.03;4950126;28;20051;-75
2023/08/08 09:15:35;;;;;;;3.70;1.73;;;;;;;16.23;100.00;100908.19;4942134;28;20047;-75
2023/08/08 09:18:02;;;;;;;2.92;0.90;;;;;;;16.21;100.00;100912.66;4917031;28;20038;-75
2023/08/08 09:20:30;;;;;;;4.35;1.35;;;;;;;16.38;100.00;100902.56;4954959;28;20050;-75
2023/08/08 09:22:57;;;;;;;4.85;1.20;;;;;;;16.61;100.00;100903.88;4950912;29;20039;-75
2023/08/08 09:25:26;;;;;;;4.78;1.27;;;;;;;16.83;100.00;100919.44;4946317;29;20051;-75
2023/08/08 09:27:53;;;;;;;8.63;1.75;;;;;;;16.92;100.00;100949.41;4949226;29;20047;-76
2023/08/08 09:30:22;;;;;;;5.15;1.80;;;;;;;16.48;100.00;100921.91;4941318;28;20058;-75
2023/08/08 09:32:49;;;;;;;2.55;1.17;;;;;;;16.06;100.00;100923.59;4899599;28;20062;-76
2023/08/08 09:35:18;;;;;;;3.65;1.05;;;;;;;15.78;100.00;100924.97;4964019;28;20039;-76
2023/08/08 09:37:46;;;;;;;5.68;1.23;;;;;;;15.58;100.00;100927.91;4949706;29;20039;-76
2023/08/08 09:40:14;;;;;;;4.70;1.33;;;;;;;15.51;100.00;100909.44;4965032;28;20055;-76
2023/08/08 09:42:44;;;;;;;2.92;0.95;;;;;;;15.50;100.00;100913.91;4948302;28;20066;-75
2023/08/08 09:45:11;;;;;;;3.17;1.38;;;;;;;15.48;100.00;100905.06;4942064;28;20805;-75
2023/08/08 09:47:39;;;;;;;10.77;1.58;;;;;;;15.41;100.00;100911.38;4917564;28;22253;-75
2023/08/08 09:50:07;;;;;;;4.43;1.30;;;;;;;15.37;100.00;100902.59;4964028;28;20547;-75
2023/08/08 09:52:35;;;;;;;1.20;0.93;;;;;;;15.34;100.00;100904.41;4947705;28;20418;-77
2023/08/08 09:55:04;;;;;;;4.53;1.17;;;;;;;15.34;100.00;100923.00;4949026;28;20516;-75
2023/08/08 09:57:32;;;;;;;4.80;1.05;;;;;;;15.33;100.00;100914.16;4944986;29;20066;-75
2023/08/08 10:00:05;;;;;;;;;;;;;;;15.30;100.00;100918.63;4946576;29;20051;-75
2023/08/08 10:02:32;;;;;;;5.00;1.77;;;;;;;15.21;100.00;100917.84;4940817;28;19930;-76
2023/08/08 10:05:02;;;;;;;2.65;1.30;;;;;;;15.22;100.00;100916.09;4929726;28;20047;-76
2023/08/08 10:07:30;;;;;;;6.32;1.13;;;;;;;15.23;100.00;100916.97;4947236;28;20051;-76
2023/08/08 10:09:59;;;;;;;4.65;1.20;;;;;;;15.37;100.00;100913.19;4949960;28;20055;-75
2023/08/08 10:12:26;;;;;;;3.10;1.02;;;;;;;15.53;100.00;100923.56;4929669;29;20043;-75
2023/08/08 10:14:55;;;;;;;5.45;1.20;;;;;;;15.59;100.00;100918.16;4948613;28;20062;-76
2023/08/08 10:17:22;;;;;;;1.75;0.70;;;;;;;15.55;100.00;100925.28;4939483;28;20062;-75
2023/08/08 10:19:57;;;;;;;5.97;1.00;;;;;;;15.70;100.00;100925.97;4923451;28;20051;-75
2023/08/08 10:22:24;;;;;;;4.07;1.30;;;;;;;15.89;100.00;100914.13;4961801;28;20039;-76
2023/08/08 10:24:53;;;;;;;4.65;1.30;;;;;;;16.01;100.00;100925.44;4948317;28;20043;-76
2023/08/08 10:27:32;;;;;;;6.25;1.15;;;;;;;16.00;100.00;100924.59;4946179;29;20059;-76
2023/08/08 10:30:09;;;;;;;5.88;1.50;;;;;;;15.95;100.00;100930.00;4949209;29;20072;-75
2023/08/08 10:32:40;;;;;;;2.85;1.13;;;;;;;15.77;100.00;100939.16;4941384;28;20867;-75
2023/08/08 10:35:09;;;;;;;6.35;1.25;;;;;;;15.65;100.00;100946.41;4909475;28;20046;-75
2023/08/08 10:37:37;;;;;;;4.07;1.35;;;;;;;15.70;100.00;100942.75;4954374;28;20047;-77
2023/08/08 10:40:06;;;;;;;4.70;1.33;;;;;;;15.83;100.00;100932.84;4948493;29;20043;-75
2023/08/08 10:42:42;;;;;;;4.90;1.30;;;;;;;16.03;100.00;100928.94;4945153;29;20051;-75
2023/08/08 10:45:13;;;;;;;6.15;1.70;;;;;;;16.27;100.00;100933.81;4948549;28;20058;-76
2023/08/08 10:47:42;;;;;;;4.40;1.33;;;;;;;16.50;100.00;100920.09;4941332;28;20051;-76
2023/08/08 10:50:14;;;;;;;4.35;1.33;;;;;;;16.49;100.00;100930.75;4941408;28;20047;-77
2023/08/08 10:52:54;;;;;;;6.70;1.30;;;;;;;16.36;100.00;100920.34;4962253;28;20051;-76
2023/08/08 10:55:41;;;;;;;5.78;1.10;;;;;;;16.43;100.00;100920.25;4951189;28;20501;-76
2023/08/08 10:58:12;;;;;;;5.47;1.15;;;;;;;16.60;100.00;100909.25;4975313;28;20058;-75
2023/08/08 11:00:40;;;;;;;3.63;1.05;;;;;;;16.86;100.00;100933.56;4957250;28;20079;-76
2023/08/08 11:03:08;;;;;;;9.43;1.20;;;;;;;17.10;100.00;100915.28;4949357;28;20493;-76
2023/08/08 11:05:38;;;;;;;3.80;1.05;;;;;;;17.13;100.00;100920.56;4934846;29;20047;-76
2023/08/08 11:08:06;;;;;;;6.30;1.20;;;;;;;17.11;100.00;100930.38;4927674;28;20055;-76
2023/08/08 11:10:39;;;;;;;3.72;1.05;;;;;;;17.03;100.00;100937.63;4950476;28;20047;-76
2023/08/08 11:13:08;;;;;;;5.20;1.20;;;;;;;16.84;100.00;100929.16;4953775;28;20052;-75
2023/08/08 11:15:37;;;;;;;4.32;1.25;;;;;;;16.79;100.00;100931.91;4949190;28;20058;-75
2023/08/08 11:18:08;;;;;;;1.70;1.00;;;;;;;16.85;100.00;100929.16;4946684;29;20051;-75
2023/08/08 11:20:36;;;;;;;4.25;0.95;;;;;;;17.02;100.00;100928.78;4961296;28;20050;-75